createdAt,value
2018-02-16T00:01:52.150Z,1.60
2018-02-16T00:06:55.344Z,1.60
2018-02-16T00:11:58.650Z,1.70
2018-02-16T00:17:02.605Z,1.60
2018-02-16T00:22:08.209Z,1.60
2018-02-16T00:27:12.663Z,1.50
2018-02-16T00:32:15.886Z,1.50
2018-02-16T00:37:19.041Z,1.40
2018-02-16T00:42:22.162Z,1.60
2018-02-16T00:47:26.103Z,1.60
2018-02-16T00:52:30.013Z,1.50
2018-02-16T00:57:33.391Z,1.30
2018-02-16T01:02:37.537Z,1.10
2018-02-16T01:07:41.082Z,1.10
2018-02-16T01:12:44.910Z,1.00
2018-02-16T01:17:48.877Z,0.90
2018-02-16T01:22:52.876Z,0.90
2018-02-16T01:27:57.956Z,0.90
2018-02-16T01:33:02.024Z,0.80
2018-02-16T01:38:05.225Z,0.80
2018-02-16T01:43:08.388Z,0.80
2018-02-16T01:48:13.203Z,0.70
2018-02-16T01:53:17.222Z,0.70
2018-02-16T01:58:21.250Z,0.50
2018-02-16T02:03:24.395Z,0.40
2018-02-16T02:08:29.247Z,0.40
2018-02-16T02:13:32.424Z,0.30
2018-02-16T02:23:40.967Z,0.30
2018-02-16T02:28:44.063Z,0.40
2018-02-16T02:33:49.611Z,0.50
2018-02-16T02:38:53.019Z,0.60
2018-02-16T02:43:56.932Z,0.70
2018-02-16T02:49:00.876Z,0.70
2018-02-16T02:54:04.781Z,0.80
2018-02-16T02:59:10.104Z,0.80
2018-02-16T03:04:13.311Z,0.80
2018-02-16T03:09:18.199Z,0.80
2018-02-16T03:14:22.103Z,0.80
2018-02-16T03:19:25.219Z,0.80
2018-02-16T03:24:29.107Z,0.80
2018-02-16T03:29:33.117Z,0.90
2018-02-16T03:34:36.279Z,0.90
2018-02-16T03:39:39.467Z,0.90
2018-02-16T03:44:43.800Z,0.90
2018-02-16T03:49:46.968Z,0.90
2018-02-16T03:54:50.542Z,0.90
2018-02-16T03:59:54.407Z,0.90
2018-02-16T04:04:57.706Z,0.80
2018-02-16T04:10:01.239Z,0.80
2018-02-16T04:15:04.706Z,0.80
2018-02-16T04:20:07.786Z,0.70
2018-02-16T04:25:10.863Z,0.60
2018-02-16T04:30:14.731Z,0.50
2018-02-16T04:35:17.900Z,0.50
2018-02-16T04:40:23.128Z,0.40
2018-02-16T04:45:27.070Z,0.30
2018-02-16T04:50:31.120Z,0.30
2018-02-16T04:55:35.352Z,0.30
2018-02-16T05:00:39.213Z,0.30
2018-02-16T05:10:46.743Z,0.40
2018-02-16T05:15:49.843Z,0.60
2018-02-16T05:20:52.945Z,0.60
2018-02-16T05:25:57.161Z,0.70
2018-02-16T05:31:01.400Z,0.80
2018-02-16T05:41:10.473Z,1.00
2018-02-16T05:46:14.711Z,1.00
2018-02-16T05:51:18.248Z,1.00
2018-02-16T05:56:21.721Z,1.00
2018-02-16T06:01:26.312Z,1.10
2018-02-16T06:06:30.165Z,1.10
2018-02-16T06:11:33.243Z,1.10
2018-02-16T06:16:36.729Z,1.10
2018-02-16T06:21:40.987Z,1.00
2018-02-16T06:31:49.507Z,0.80
2018-02-16T06:47:02.608Z,0.70
2018-02-16T06:52:06.094Z,0.60
2018-02-16T06:57:09.182Z,0.60
2018-02-16T07:02:13.024Z,0.60
2018-02-16T07:12:20.936Z,0.60
2018-02-16T07:17:25.569Z,0.60
2018-02-16T07:22:29.052Z,0.70
2018-02-16T07:27:32.543Z,0.80
2018-02-16T07:32:35.636Z,0.90
2018-02-16T07:37:39.483Z,1.10
2018-02-16T07:42:42.623Z,1.20
2018-02-16T07:52:50.539Z,2.20
2018-02-16T07:57:53.632Z,3.40
2018-02-16T08:08:02.655Z,3.40
2018-02-16T08:13:06.864Z,4.50
2018-02-16T08:18:10.719Z,5.50
2018-02-16T08:23:14.943Z,6.70
2018-02-16T08:28:18.795Z,7.80
2018-02-16T08:33:22.279Z,9.00
2018-02-16T08:38:25.808Z,10.10
2018-02-16T08:43:29.684Z,10.20
2018-02-16T08:48:33.176Z,10.40
2018-02-16T08:53:37.780Z,10.90
2018-02-16T08:58:41.671Z,11.20
2018-02-16T09:03:45.554Z,10.50
2018-02-16T09:08:48.644Z,10.60
2018-02-16T09:18:56.180Z,10.60
2018-02-16T09:24:00.790Z,9.70
2018-02-16T09:29:04.268Z,9.80
2018-02-16T09:34:07.392Z,9.20
2018-02-16T09:39:14.660Z,8.60
2018-02-16T09:44:17.744Z,8.20
2018-02-16T09:49:21.232Z,7.80
2018-02-16T09:54:25.091Z,7.60
2018-02-16T09:59:28.584Z,7.50
2018-02-16T10:04:33.167Z,7.40
2018-02-16T10:09:36.657Z,7.30
2018-02-16T10:19:45.314Z,7.50
2018-02-16T10:24:49.551Z,7.40
2018-02-16T10:29:53.076Z,7.30
2018-02-16T10:34:56.919Z,7.10
2018-02-16T10:40:01.128Z,6.90
2018-02-16T10:45:04.628Z,6.90
2018-02-16T10:55:12.943Z,7.20
2018-02-16T11:11:02.596Z,7.10
2018-02-16T11:16:07.162Z,7.20
2018-02-16T11:36:23.579Z,6.70
2018-02-16T11:46:31.845Z,6.70
2018-02-16T11:51:35.335Z,6.70
2018-02-16T11:56:38.408Z,6.90
2018-02-16T12:01:41.880Z,7.00
2018-02-16T12:06:46.471Z,7.20
2018-02-16T12:11:50.332Z,7.40
2018-02-16T12:16:54.559Z,7.70
2018-02-16T12:21:57.655Z,7.90
2018-02-16T12:27:01.127Z,8.00
2018-02-16T12:32:04.255Z,7.90
2018-02-16T12:37:07.336Z,7.60
2018-02-16T12:42:12.692Z,7.50
2018-02-16T12:47:16.546Z,7.40
2018-02-16T12:52:20.760Z,7.40
2018-02-16T12:57:23.900Z,7.40
2018-02-16T13:02:26.996Z,7.40
2018-02-16T13:07:31.220Z,7.40
2018-02-16T13:12:34.296Z,7.30
2018-02-16T13:17:37.664Z,7.20
2018-02-16T13:22:41.504Z,7.10
2018-02-16T13:32:49.414Z,7.10
2018-02-16T13:42:57.759Z,7.20
2018-02-16T13:48:01.604Z,7.30
2018-02-16T13:53:04.672Z,7.40
2018-02-16T13:58:07.755Z,7.50
2018-02-16T14:13:19.707Z,7.50
2018-02-16T14:18:22.828Z,7.50
2018-02-16T14:23:25.953Z,7.60
2018-02-16T14:28:29.827Z,7.60
2018-02-16T14:43:41.771Z,7.50
2018-02-16T14:48:46.614Z,7.50
2018-02-16T14:53:50.501Z,7.50
2018-02-16T14:58:53.942Z,7.40
2018-02-16T15:03:57.035Z,7.40
2018-02-16T15:09:00.108Z,7.30
2018-02-16T15:14:03.939Z,7.20
2018-02-16T15:19:08.150Z,7.20
2018-02-16T15:24:12.351Z,7.20
2018-02-16T15:29:16.563Z,7.10
2018-02-16T15:34:19.694Z,7.10
2018-02-16T15:39:23.147Z,7.00
2018-02-16T15:44:26.236Z,6.90
2018-02-16T15:49:29.312Z,6.90
2018-02-16T15:54:32.788Z,6.80
2018-02-16T15:59:36.624Z,6.70
2018-02-16T16:04:39.916Z,6.60
2018-02-16T16:09:44.520Z,6.50
2018-02-16T16:14:47.611Z,6.50
2018-02-16T16:19:50.714Z,6.30
2018-02-16T16:24:55.510Z,6.20
2018-02-16T16:29:59.357Z,6.00
2018-02-16T16:35:03.196Z,5.90
2018-02-16T16:40:07.406Z,5.80
2018-02-16T16:55:20.336Z,5.20
2018-02-16T17:00:23.424Z,5.10
2018-02-16T17:05:26.495Z,5.00
2018-02-16T17:15:34.767Z,4.50
2018-02-16T17:25:43.834Z,4.20
2018-02-16T17:30:47.132Z,4.00
2018-02-16T17:40:55.045Z,3.70
2018-02-16T17:45:58.521Z,3.50
2018-02-16T17:56:07.555Z,3.20
2018-02-16T18:01:10.679Z,2.90
2018-02-16T18:06:14.557Z,2.70
2018-02-16T18:11:17.633Z,2.70
2018-02-16T18:16:21.113Z,2.70
2018-02-16T18:21:24.592Z,2.60
2018-02-16T18:26:28.810Z,2.60
2018-02-16T18:31:32.653Z,2.50
2018-02-16T18:36:36.867Z,2.40
2018-02-16T18:41:40.739Z,2.30
2018-02-16T18:46:43.820Z,2.40
2018-02-16T18:51:46.908Z,2.50
2018-02-16T18:56:50.759Z,2.40
2018-02-16T19:01:53.833Z,2.20
2018-02-16T19:06:58.040Z,2.10
2018-02-16T19:12:01.283Z,2.00
2018-02-16T19:17:04.802Z,1.80
2018-02-16T19:22:08.640Z,1.80
2018-02-16T19:32:17.894Z,1.70
2018-02-16T19:42:26.452Z,1.60
2018-02-16T19:47:29.980Z,1.50
2018-02-16T19:52:33.061Z,1.40
2018-02-16T19:57:36.183Z,1.30
2018-02-16T20:02:39.279Z,1.00
2018-02-16T20:07:43.701Z,0.90
2018-02-16T20:12:46.868Z,0.80
2018-02-16T20:17:49.956Z,0.70
2018-02-16T20:22:53.129Z,0.60
2018-02-16T20:27:56.216Z,0.70
2018-02-16T20:33:00.011Z,0.70
2018-02-16T20:38:03.196Z,0.60
2018-02-16T20:43:06.284Z,0.60
2018-02-16T20:48:09.373Z,0.70
2018-02-16T20:53:12.857Z,0.70
2018-02-16T20:58:16.751Z,0.60
2018-02-16T21:03:21.042Z,0.50
2018-02-16T21:08:24.122Z,0.40
2018-02-16T21:13:27.976Z,0.20
2018-02-16T21:18:31.072Z,0.20
2018-02-16T21:23:34.159Z,0.10
2018-02-16T21:33:42.440Z,0.00
2018-02-16T21:43:50.741Z,0.00
2018-02-16T21:48:53.821Z,0.00
2018-02-16T21:53:57.681Z,0.00
2018-02-16T21:59:01.138Z,0.10
2018-02-16T22:04:04.607Z,0.20
2018-02-16T22:09:08.087Z,0.30
2018-02-16T22:14:11.583Z,0.30
2018-02-16T22:19:15.463Z,0.40
2018-02-16T22:24:18.920Z,0.40
2018-02-16T22:44:36.079Z,0.10
2018-02-16T22:49:39.167Z,0.10
2018-02-16T22:54:43.391Z,0.10
2018-02-16T22:59:46.499Z,0.10
2018-02-16T23:09:54.033Z,0.20
2018-02-16T23:14:57.111Z,0.20
2018-02-16T23:20:01.335Z,0.10
2018-02-16T23:25:05.928Z,0.20
2018-02-16T23:30:09.644Z,0.20
2018-02-16T23:45:22.293Z,0.40
2018-02-16T23:55:30.485Z,0.40
